Liberty, Idaho
Current Conditions -  °F | °C
As of 11:55 AM on Friday 31 Oct 2014 (Local Time) from KAFO Reporting Station
Clear Clear  
Wind Chill: 48°   Ceiling: Unl
Heat Index: 48°   Visibility: 10mi
Dew Point: 34°   Wind: 3mph
Humidity: 57%   Direction: 40°NE
Pressure: 30.05"   Gusts: NA
Location:  42.3329°N, 111.271°W
Report Text: KAFO 311755Z AUTO 04003KT 10SM CLR 09/01 A3005 RMK AO2
Loading
Personal Weather Stations






























Interactive Weather Map
Tropical Storm Tracking
New forecast layout! Learn more

10-Day Weather Forecast

Advertisements
Track Severe Weather on mobile